sensor_id;sensor_type;location;lat;lon;timestamp;pressure;altitude;pressure_sealevel;temperature;humidity
23016;BME280;11674;52.428;13.584;2023-04-04T00:02:44;102827.25;;;2.34;67.38
23016;BME280;11674;52.428;13.584;2023-04-04T00:07:51;102813.81;;;2.25;67.47
23016;BME280;11674;52.428;13.584;2023-04-04T00:12:58;102813.06;;;2.16;67.40
23016;BME280;11674;52.428;13.584;2023-04-04T00:18:05;102816.72;;;2.09;67.50
23016;BME280;11674;52.428;13.584;2023-04-04T00:23:12;102804.78;;;2.02;67.50
23016;BME280;11674;52.428;13.584;2023-04-04T00:28:19;102804.13;;;2.00;67.56
23016;BME280;11674;52.428;13.584;2023-04-04T00:33:27;102815.25;;;1.98;67.64
23016;BME280;11674;52.428;13.584;2023-04-04T00:38:34;102811.00;;;1.96;67.58
23016;BME280;11674;52.428;13.584;2023-04-04T00:43:41;102812.75;;;1.89;67.52
23016;BME280;11674;52.428;13.584;2023-04-04T00:48:49;102815.03;;;1.85;67.75
23016;BME280;11674;52.428;13.584;2023-04-04T00:53:56;102805.28;;;1.83;67.72
23016;BME280;11674;52.428;13.584;2023-04-04T00:59:05;102802.25;;;1.78;67.61
23016;BME280;11674;52.428;13.584;2023-04-04T01:04:12;102805.16;;;1.76;67.89
23016;BME280;11674;52.428;13.584;2023-04-04T01:09:22;102798.88;;;1.76;67.90
23016;BME280;11674;52.428;13.584;2023-04-04T01:14:32;102800.56;;;1.77;68.01
23016;BME280;11674;52.428;13.584;2023-04-04T01:19:48;102803.09;;;1.78;68.03
23016;BME280;11674;52.428;13.584;2023-04-04T01:25:03;102798.47;;;1.79;67.99
23016;BME280;11674;52.428;13.584;2023-04-04T01:30:15;102789.97;;;1.74;68.04
23016;BME280;11674;52.428;13.584;2023-04-04T01:40:47;102787.66;;;1.63;68.14
23016;BME280;11674;52.428;13.584;2023-04-04T01:45:59;102782.94;;;1.57;68.08
23016;BME280;11674;52.428;13.584;2023-04-04T01:51:07;102786.00;;;1.54;68.37
23016;BME280;11674;52.428;13.584;2023-04-04T01:56:15;102776.50;;;1.50;68.31
23016;BME280;11674;52.428;13.584;2023-04-04T02:01:22;102781.44;;;1.46;68.31
23016;BME280;11674;52.428;13.584;2023-04-04T02:06:29;102770.72;;;1.45;68.43
23016;BME280;11674;52.428;13.584;2023-04-04T02:11:37;102766.28;;;1.44;68.52
23016;BME280;11674;52.428;13.584;2023-04-04T02:16:43;102765.59;;;1.42;68.48
23016;BME280;11674;52.428;13.584;2023-04-04T02:21:50;102770.41;;;1.40;68.52
23016;BME280;11674;52.428;13.584;2023-04-04T02:26:57;102762.06;;;1.33;68.58
23016;BME280;11674;52.428;13.584;2023-04-04T02:32:04;102751.88;;;1.27;68.81
23016;BME280;11674;52.428;13.584;2023-04-04T02:37:11;102760.41;;;1.24;68.66
23016;BME280;11674;52.428;13.584;2023-04-04T02:42:19;102752.44;;;1.23;68.65
23016;BME280;11674;52.428;13.584;2023-04-04T02:47:25;102753.63;;;1.20;68.93
23016;BME280;11674;52.428;13.584;2023-04-04T02:52:33;102740.97;;;1.19;68.84
23016;BME280;11674;52.428;13.584;2023-04-04T02:57:50;102737.94;;;1.14;68.92
23016;BME280;11674;52.428;13.584;2023-04-04T03:02:57;102737.44;;;1.11;68.95
23016;BME280;11674;52.428;13.584;2023-04-04T03:08:08;102738.66;;;1.08;69.10
23016;BME280;11674;52.428;13.584;2023-04-04T03:13:15;102735.63;;;1.03;68.90
23016;BME280;11674;52.428;13.584;2023-04-04T03:18:22;102729.84;;;0.98;69.15
23016;BME280;11674;52.428;13.584;2023-04-04T03:23:29;102722.19;;;0.94;69.09
23016;BME280;11674;52.428;13.584;2023-04-04T03:28:37;102722.03;;;0.95;69.15
23016;BME280;11674;52.428;13.584;2023-04-04T03:33:46;102714.47;;;0.97;69.26
23016;BME280;11674;52.428;13.584;2023-04-04T03:38:52;102715.53;;;0.96;69.32
23016;BME280;11674;52.428;13.584;2023-04-04T03:43:59;102714.88;;;0.94;69.37
23016;BME280;11674;52.428;13.584;2023-04-04T03:49:06;102713.16;;;0.93;69.36
23016;BME280;11674;52.428;13.584;2023-04-04T03:54:28;102700.72;;;0.91;69.45
23016;BME280;11674;52.428;13.584;2023-04-04T03:59:35;102691.00;;;0.88;69.53
23016;BME280;11674;52.428;13.584;2023-04-04T04:04:43;102699.19;;;0.88;69.36
23016;BME280;11674;52.428;13.584;2023-04-04T04:09:49;102689.97;;;0.89;69.56
23016;BME280;11674;52.428;13.584;2023-04-04T04:14:56;102691.19;;;0.87;69.62
23016;BME280;11674;52.428;13.584;2023-04-04T04:20:07;102700.09;;;0.81;69.60
23016;BME280;11674;52.428;13.584;2023-04-04T04:25:22;102692.25;;;0.78;69.57
23016;BME280;11674;52.428;13.584;2023-04-04T04:30:43;102694.66;;;0.73;69.46
23016;BME280;11674;52.428;13.584;2023-04-04T04:36:01;102705.25;;;0.68;69.74
23016;BME280;11674;52.428;13.584;2023-04-04T04:41:27;102705.81;;;0.63;69.80
23016;BME280;11674;52.428;13.584;2023-04-04T04:46:38;102704.94;;;0.63;69.65
23016;BME280;11674;52.428;13.584;2023-04-04T04:51:49;102714.00;;;0.63;69.69
23016;BME280;11674;52.428;13.584;2023-04-04T04:56:56;102712.13;;;0.64;69.90
23016;BME280;11674;52.428;13.584;2023-04-04T05:02:04;102717.22;;;0.67;69.74
23016;BME280;11674;52.428;13.584;2023-04-04T05:07:16;102703.22;;;0.70;69.83
23016;BME280;11674;52.428;13.584;2023-04-04T05:12:23;102715.47;;;0.74;69.86
23016;BME280;11674;52.428;13.584;2023-04-04T05:17:30;102715.78;;;0.79;69.99
23016;BME280;11674;52.428;13.584;2023-04-04T05:22:43;102721.56;;;0.84;70.00
23016;BME280;11674;52.428;13.584;2023-04-04T05:27:55;102730.06;;;0.89;70.26
23016;BME280;11674;52.428;13.584;2023-04-04T05:33:02;102728.84;;;0.99;70.14
23016;BME280;11674;52.428;13.584;2023-04-04T05:38:11;102736.63;;;1.10;70.36
23016;BME280;11674;52.428;13.584;2023-04-04T05:43:21;102730.56;;;1.23;70.40
23016;BME280;11674;52.428;13.584;2023-04-04T05:48:40;102730.97;;;1.34;70.38
23016;BME280;11674;52.428;13.584;2023-04-04T05:53:48;102735.66;;;1.48;70.46
23016;BME280;11674;52.428;13.584;2023-04-04T05:58:59;102725.16;;;1.60;70.58
23016;BME280;11674;52.428;13.584;2023-04-04T06:04:11;102734.22;;;1.75;70.61
23016;BME280;11674;52.428;13.584;2023-04-04T06:09:19;102730.88;;;1.87;70.67
23016;BME280;11674;52.428;13.584;2023-04-04T06:14:26;102739.09;;;2.02;70.61
23016;BME280;11674;52.428;13.584;2023-04-04T06:19:36;102741.59;;;2.11;70.54
23016;BME280;11674;52.428;13.584;2023-04-04T06:24:43;102748.00;;;2.18;70.72
23016;BME280;11674;52.428;13.584;2023-04-04T06:29:51;102733.69;;;2.31;70.74
23016;BME280;11674;52.428;13.584;2023-04-04T06:34:58;102741.91;;;2.45;70.66
23016;BME280;11674;52.428;13.584;2023-04-04T06:40:19;102740.84;;;2.61;70.79
23016;BME280;11674;52.428;13.584;2023-04-04T06:45:27;102741.13;;;2.80;70.72
23016;BME280;11674;52.428;13.584;2023-04-04T06:50:34;102737.97;;;2.98;70.71
23016;BME280;11674;52.428;13.584;2023-04-04T06:55:45;102738.41;;;3.16;70.63
23016;BME280;11674;52.428;13.584;2023-04-04T07:00:52;102734.09;;;3.28;70.49
23016;BME280;11674;52.428;13.584;2023-04-04T07:06:03;102733.47;;;3.47;70.43
23016;BME280;11674;52.428;13.584;2023-04-04T07:11:10;102735.97;;;3.63;70.43
23016;BME280;11674;52.428;13.584;2023-04-04T07:16:17;102723.66;;;3.80;70.60
23016;BME280;11674;52.428;13.584;2023-04-04T07:21:24;102730.56;;;3.97;70.54
23016;BME280;11674;52.428;13.584;2023-04-04T07:26:31;102719.91;;;4.15;70.38
23016;BME280;11674;52.428;13.584;2023-04-04T07:31:38;102715.97;;;4.24;70.09
23016;BME280;11674;52.428;13.584;2023-04-04T07:36:45;102709.28;;;4.33;69.72
23016;BME280;11674;52.428;13.584;2023-04-04T07:41:52;102702.31;;;4.37;69.29
23016;BME280;11674;52.428;13.584;2023-04-04T07:46:59;102700.91;;;4.47;69.20
23016;BME280;11674;52.428;13.584;2023-04-04T07:52:06;102700.63;;;4.70;69.13
23016;BME280;11674;52.428;13.584;2023-04-04T07:57:13;102693.25;;;4.77;68.75
23016;BME280;11674;52.428;13.584;2023-04-04T08:02:20;102693.06;;;4.91;68.52
23016;BME280;11674;52.428;13.584;2023-04-04T08:07:27;102686.13;;;4.95;68.26
23016;BME280;11674;52.428;13.584;2023-04-04T08:12:34;102693.94;;;4.98;67.59
23016;BME280;11674;52.428;13.584;2023-04-04T08:17:41;102681.28;;;5.04;67.46
23016;BME280;11674;52.428;13.584;2023-04-04T08:22:48;102687.03;;;5.15;67.33
23016;BME280;11674;52.428;13.584;2023-04-04T08:27:55;102680.06;;;5.26;66.90
23016;BME280;11674;52.428;13.584;2023-04-04T08:33:02;102667.81;;;5.35;67.15
23016;BME280;11674;52.428;13.584;2023-04-04T08:38:09;102665.72;;;5.43;66.90
23016;BME280;11674;52.428;13.584;2023-04-04T08:43:17;102667.41;;;5.64;66.79
23016;BME280;11674;52.428;13.584;2023-04-04T08:48:25;102673.78;;;5.64;66.53
23016;BME280;11674;52.428;13.584;2023-04-04T08:53:34;102674.00;;;5.82;66.42
23016;BME280;11674;52.428;13.584;2023-04-04T08:58:41;102669.53;;;5.94;66.32
23016;BME280;11674;52.428;13.584;2023-04-04T09:03:48;102656.84;;;6.06;65.59
23016;BME280;11674;52.428;13.584;2023-04-04T09:08:58;102653.84;;;6.21;64.93
23016;BME280;11674;52.428;13.584;2023-04-04T09:14:04;102654.91;;;6.20;64.34
23016;BME280;11674;52.428;13.584;2023-04-04T09:19:11;102663.59;;;6.30;63.86
23016;BME280;11674;52.428;13.584;2023-04-04T09:24:18;102649.81;;;6.30;63.73
23016;BME280;11674;52.428;13.584;2023-04-04T09:29:25;102650.75;;;6.55;63.95
23016;BME280;11674;52.428;13.584;2023-04-04T09:34:32;102642.59;;;6.79;63.75
23016;BME280;11674;52.428;13.584;2023-04-04T09:39:39;102638.59;;;7.13;63.82
23016;BME280;11674;52.428;13.584;2023-04-04T09:44:46;102645.75;;;7.27;62.96
23016;BME280;11674;52.428;13.584;2023-04-04T09:49:57;102642.09;;;7.33;63.03
23016;BME280;11674;52.428;13.584;2023-04-04T09:55:04;102631.91;;;7.58;63.72
23016;BME280;11674;52.428;13.584;2023-04-04T10:00:18;102631.28;;;7.56;62.68
23016;BME280;11674;52.428;13.584;2023-04-04T10:05:26;102635.63;;;7.45;63.01
23016;BME280;11674;52.428;13.584;2023-04-04T10:10:33;102624.63;;;7.63;62.95
23016;BME280;11674;52.428;13.584;2023-04-04T10:15:51;102621.38;;;7.97;62.91
23016;BME280;11674;52.428;13.584;2023-04-04T10:21:00;102622.81;;;8.00;61.90
23016;BME280;11674;52.428;13.584;2023-04-04T10:26:07;102624.00;;;7.86;62.56
23016;BME280;11674;52.428;13.584;2023-04-04T10:31:20;102623.00;;;7.80;61.85
23016;BME280;11674;52.428;13.584;2023-04-04T10:36:29;102625.16;;;7.54;61.86
23016;BME280;11674;52.428;13.584;2023-04-04T10:41:49;102617.06;;;7.28;60.85
23016;BME280;11674;52.428;13.584;2023-04-04T10:46:57;102615.91;;;7.42;61.46
23016;BME280;11674;52.428;13.584;2023-04-04T10:52:06;102601.94;;;8.04;61.53
23016;BME280;11674;52.428;13.584;2023-04-04T10:57:13;102599.28;;;8.33;61.56
23016;BME280;11674;52.428;13.584;2023-04-04T11:02:44;102596.03;;;8.18;60.83
23016;BME280;11674;52.428;13.584;2023-04-04T11:07:55;102591.38;;;7.76;59.41
23016;BME280;11674;52.428;13.584;2023-04-04T11:13:08;102583.19;;;7.88;60.04
23016;BME280;11674;52.428;13.584;2023-04-04T11:18:18;102575.63;;;8.37;60.36
23016;BME280;11674;52.428;13.584;2023-04-04T11:23:25;102562.34;;;8.64;60.51
23016;BME280;11674;52.428;13.584;2023-04-04T11:39:31;102549.28;;;8.35;59.73
23016;BME280;11674;52.428;13.584;2023-04-04T11:45:00;102545.84;;;8.03;58.40
23016;BME280;11674;52.428;13.584;2023-04-04T11:50:08;102542.44;;;8.01;58.15
23016;BME280;11674;52.428;13.584;2023-04-04T11:55:18;102531.84;;;8.34;58.05
23016;BME280;11674;52.428;13.584;2023-04-04T12:00:33;102515.09;;;8.47;57.24
23016;BME280;11674;52.428;13.584;2023-04-04T12:05:41;102512.63;;;8.98;58.18
23016;BME280;11674;52.428;13.584;2023-04-04T12:10:48;102499.44;;;9.81;57.65
23016;BME280;11674;52.428;13.584;2023-04-04T12:15:56;102497.66;;;9.52;57.44
23016;BME280;11674;52.428;13.584;2023-04-04T12:21:05;102499.66;;;9.10;57.56
23016;BME280;11674;52.428;13.584;2023-04-04T12:26:13;102492.69;;;9.31;57.62
23016;BME280;11674;52.428;13.584;2023-04-04T12:31:20;102487.53;;;9.23;56.41
23016;BME280;11674;52.428;13.584;2023-04-04T12:36:31;102485.22;;;9.08;55.60
23016;BME280;11674;52.428;13.584;2023-04-04T12:41:55;102471.75;;;9.46;56.20
23016;BME280;11674;52.428;13.584;2023-04-04T12:47:04;102473.56;;;9.41;56.22
23016;BME280;11674;52.428;13.584;2023-04-04T12:52:19;102460.78;;;9.17;55.74
23016;BME280;11674;52.428;13.584;2023-04-04T12:57:26;102456.38;;;9.39;55.72
23016;BME280;11674;52.428;13.584;2023-04-04T13:02:34;102442.25;;;9.63;56.17
23016;BME280;11674;52.428;13.584;2023-04-04T13:07:41;102440.97;;;9.94;55.10
23016;BME280;11674;52.428;13.584;2023-04-04T13:12:59;102428.69;;;10.57;55.49
23016;BME280;11674;52.428;13.584;2023-04-04T13:18:13;102428.31;;;10.98;54.40
23016;BME280;11674;52.428;13.584;2023-04-04T13:23:20;102420.97;;;10.59;55.25
23016;BME280;11674;52.428;13.584;2023-04-04T13:28:27;102411.38;;;10.22;55.14
23016;BME280;11674;52.428;13.584;2023-04-04T13:33:34;102415.50;;;10.20;54.59
23016;BME280;11674;52.428;13.584;2023-04-04T13:38:41;102405.03;;;9.99;55.50
23016;BME280;11674;52.428;13.584;2023-04-04T13:43:48;102397.97;;;9.80;55.24
23016;BME280;11674;52.428;13.584;2023-04-04T13:48:55;102391.84;;;9.78;54.50
23016;BME280;11674;52.428;13.584;2023-04-04T13:54:02;102387.16;;;10.18;54.07
23016;BME280;11674;52.428;13.584;2023-04-04T13:59:10;102371.53;;;10.73;54.74
23016;BME280;11674;52.428;13.584;2023-04-04T14:04:16;102376.13;;;11.00;54.60
23016;BME280;11674;52.428;13.584;2023-04-04T14:09:23;102363.50;;;10.93;55.17
23016;BME280;11674;52.428;13.584;2023-04-04T14:14:30;102375.81;;;10.64;54.33
23016;BME280;11674;52.428;13.584;2023-04-04T14:19:37;102356.78;;;10.72;54.82
23016;BME280;11674;52.428;13.584;2023-04-04T14:24:44;102353.28;;;10.60;54.40
23016;BME280;11674;52.428;13.584;2023-04-04T14:29:51;102364.19;;;10.50;54.73
23016;BME280;11674;52.428;13.584;2023-04-04T14:34:58;102355.88;;;10.67;55.28
23016;BME280;11674;52.428;13.584;2023-04-04T14:40:06;102343.44;;;11.24;55.13
23016;BME280;11674;52.428;13.584;2023-04-04T14:45:13;102341.47;;;11.03;55.19
23016;BME280;11674;52.428;13.584;2023-04-04T14:50:20;102343.69;;;10.68;55.88
23016;BME280;11674;52.428;13.584;2023-04-04T14:55:27;102343.56;;;10.30;55.10
23016;BME280;11674;52.428;13.584;2023-04-04T15:00:34;102337.75;;;10.03;55.20
23016;BME280;11674;52.428;13.584;2023-04-04T15:05:41;102334.84;;;9.82;54.16
23016;BME280;11674;52.428;13.584;2023-04-04T15:10:48;102333.13;;;9.53;54.19
23016;BME280;11674;52.428;13.584;2023-04-04T15:15:55;102327.97;;;9.45;54.35
23016;BME280;11674;52.428;13.584;2023-04-04T15:21:03;102330.25;;;9.48;54.68
23016;BME280;11674;52.428;13.584;2023-04-04T15:26:10;102328.50;;;9.70;55.27
23016;BME280;11674;52.428;13.584;2023-04-04T15:31:17;102325.72;;;9.70;53.24
23016;BME280;11674;52.428;13.584;2023-04-04T15:36:25;102309.75;;;9.88;53.13
23016;BME280;11674;52.428;13.584;2023-04-04T15:41:31;102306.03;;;10.11;52.83
23016;BME280;11674;52.428;13.584;2023-04-04T15:46:38;102311.13;;;10.02;52.61
23016;BME280;11674;52.428;13.584;2023-04-04T15:51:45;102307.38;;;10.08;53.52
23016;BME280;11674;52.428;13.584;2023-04-04T15:56:52;102306.59;;;9.96;53.03
23016;BME280;11674;52.428;13.584;2023-04-04T16:01:59;102309.88;;;9.54;50.94
23016;BME280;11674;52.428;13.584;2023-04-04T16:07:06;102303.72;;;9.24;50.84
23016;BME280;11674;52.428;13.584;2023-04-04T16:12:14;102297.44;;;9.17;51.24
23016;BME280;11674;52.428;13.584;2023-04-04T16:17:21;102296.16;;;9.08;51.84
23016;BME280;11674;52.428;13.584;2023-04-04T16:22:28;102300.84;;;9.07;52.00
23016;BME280;11674;52.428;13.584;2023-04-04T16:27:35;102301.22;;;8.99;51.59
23016;BME280;11674;52.428;13.584;2023-04-04T16:32:42;102293.25;;;8.91;51.00
23016;BME280;11674;52.428;13.584;2023-04-04T16:37:49;102293.25;;;8.91;51.53
23016;BME280;11674;52.428;13.584;2023-04-04T16:42:56;102284.97;;;8.91;51.86
23016;BME280;11674;52.428;13.584;2023-04-04T16:48:03;102278.34;;;8.92;52.17
23016;BME280;11674;52.428;13.584;2023-04-04T16:53:10;102286.06;;;8.90;52.59
23016;BME280;11674;52.428;13.584;2023-04-04T16:58:17;102274.50;;;8.82;51.89
23016;BME280;11674;52.428;13.584;2023-04-04T17:03:24;102276.44;;;8.81;52.51
23016;BME280;11674;52.428;13.584;2023-04-04T17:08:31;102281.59;;;8.78;52.42
23016;BME280;11674;52.428;13.584;2023-04-04T17:13:38;102269.34;;;8.74;52.68
23016;BME280;11674;52.428;13.584;2023-04-04T17:18:45;102265.97;;;8.72;52.90
23016;BME280;11674;52.428;13.584;2023-04-04T17:23:52;102273.69;;;8.70;53.07
23016;BME280;11674;52.428;13.584;2023-04-04T17:28:59;102271.16;;;8.68;53.51
23016;BME280;11674;52.428;13.584;2023-04-04T17:34:06;102272.94;;;8.63;53.83
23016;BME280;11674;52.428;13.584;2023-04-04T17:39:14;102278.75;;;8.61;53.97
23016;BME280;11674;52.428;13.584;2023-04-04T17:44:20;102272.69;;;8.53;53.96
23016;BME280;11674;52.428;13.584;2023-04-04T17:49:27;102277.75;;;8.44;53.95
23016;BME280;11674;52.428;13.584;2023-04-04T17:54:34;102272.59;;;8.36;54.14
23016;BME280;11674;52.428;13.584;2023-04-04T17:59:41;102275.22;;;8.31;54.46
23016;BME280;11674;52.428;13.584;2023-04-04T18:04:48;102273.19;;;8.27;54.75
23016;BME280;11674;52.428;13.584;2023-04-04T18:09:55;102271.13;;;8.22;55.08
23016;BME280;11674;52.428;13.584;2023-04-04T18:15:02;102271.56;;;8.19;55.16
23016;BME280;11674;52.428;13.584;2023-04-04T18:20:10;102281.41;;;8.15;55.45
23016;BME280;11674;52.428;13.584;2023-04-04T18:25:16;102278.88;;;8.14;55.78
23016;BME280;11674;52.428;13.584;2023-04-04T18:30:24;102283.31;;;8.15;55.96
23016;BME280;11674;52.428;13.584;2023-04-04T18:35:31;102279.50;;;8.16;56.25
23016;BME280;11674;52.428;13.584;2023-04-04T18:40:38;102279.25;;;8.17;56.45
23016;BME280;11674;52.428;13.584;2023-04-04T18:45:45;102280.09;;;8.18;56.64
23016;BME280;11674;52.428;13.584;2023-04-04T18:50:52;102286.25;;;8.20;57.07
23016;BME280;11674;52.428;13.584;2023-04-04T18:55:59;102287.28;;;8.19;57.04
23016;BME280;11674;52.428;13.584;2023-04-04T19:01:06;102285.03;;;8.16;57.10
23016;BME280;11674;52.428;13.584;2023-04-04T19:06:13;102289.09;;;8.13;57.21
23016;BME280;11674;52.428;13.584;2023-04-04T19:11:20;102287.03;;;8.09;57.36
23016;BME280;11674;52.428;13.584;2023-04-04T19:16:27;102290.97;;;8.01;57.43
23016;BME280;11674;52.428;13.584;2023-04-04T19:21:34;102286.03;;;7.92;57.55
23016;BME280;11674;52.428;13.584;2023-04-04T19:26:42;102284.81;;;7.88;57.73
23016;BME280;11674;52.428;13.584;2023-04-04T19:31:48;102281.91;;;7.83;57.82
23016;BME280;11674;52.428;13.584;2023-04-04T19:36:58;102285.63;;;7.77;58.13
23016;BME280;11674;52.428;13.584;2023-04-04T19:42:06;102283.19;;;7.69;58.18
23016;BME280;11674;52.428;13.584;2023-04-04T19:47:18;102283.50;;;7.61;58.16
23016;BME280;11674;52.428;13.584;2023-04-04T19:52:25;102281.31;;;7.51;58.45
23016;BME280;11674;52.428;13.584;2023-04-04T19:57:32;102272.50;;;7.43;58.52
23016;BME280;11674;52.428;13.584;2023-04-04T20:02:52;102278.59;;;7.33;58.59
23016;BME280;11674;52.428;13.584;2023-04-04T20:07:59;102284.03;;;7.22;58.88
23016;BME280;11674;52.428;13.584;2023-04-04T20:13:07;102278.22;;;7.12;59.00
23016;BME280;11674;52.428;13.584;2023-04-04T20:18:22;102276.81;;;7.03;58.85
23016;BME280;11674;52.428;13.584;2023-04-04T20:23:29;102277.59;;;6.92;59.04
23016;BME280;11674;52.428;13.584;2023-04-04T20:28:36;102273.00;;;6.86;58.94
23016;BME280;11674;52.428;13.584;2023-04-04T20:33:43;102276.06;;;6.78;58.69
23016;BME280;11674;52.428;13.584;2023-04-04T20:38:50;102277.66;;;6.67;58.73
23016;BME280;11674;52.428;13.584;2023-04-04T20:44:05;102284.59;;;6.52;58.59
23016;BME280;11674;52.428;13.584;2023-04-04T20:49:15;102287.47;;;6.39;58.60
23016;BME280;11674;52.428;13.584;2023-04-04T20:54:23;102281.00;;;6.27;58.60
23016;BME280;11674;52.428;13.584;2023-04-04T20:59:33;102286.38;;;6.15;58.60
23016;BME280;11674;52.428;13.584;2023-04-04T21:04:41;102294.06;;;6.07;58.78
23016;BME280;11674;52.428;13.584;2023-04-04T21:09:48;102286.31;;;5.97;58.71
23016;BME280;11674;52.428;13.584;2023-04-04T21:14:55;102289.13;;;5.91;58.87
23016;BME280;11674;52.428;13.584;2023-04-04T21:20:14;102282.59;;;5.85;58.92
23016;BME280;11674;52.428;13.584;2023-04-04T21:25:41;102283.47;;;5.79;58.92
23016;BME280;11674;52.428;13.584;2023-04-04T21:30:49;102278.59;;;5.75;59.25
23016;BME280;11674;52.428;13.584;2023-04-04T21:35:56;102280.78;;;5.66;59.38
23016;BME280;11674;52.428;13.584;2023-04-04T21:41:15;102276.44;;;5.52;59.21
23016;BME280;11674;52.428;13.584;2023-04-04T21:46:26;102279.25;;;5.33;59.45
23016;BME280;11674;52.428;13.584;2023-04-04T21:51:32;102285.31;;;5.10;59.69
23016;BME280;11674;52.428;13.584;2023-04-04T21:56:40;102281.97;;;4.95;59.72
23016;BME280;11674;52.428;13.584;2023-04-04T22:01:49;102285.78;;;4.81;59.63
23016;BME280;11674;52.428;13.584;2023-04-04T22:06:55;102283.50;;;4.72;59.71
23016;BME280;11674;52.428;13.584;2023-04-04T22:12:03;102278.25;;;4.64;59.63
23016;BME280;11674;52.428;13.584;2023-04-04T22:17:09;102267.25;;;4.57;59.74
23016;BME280;11674;52.428;13.584;2023-04-04T22:22:16;102274.22;;;4.53;59.61
23016;BME280;11674;52.428;13.584;2023-04-04T22:27:23;102270.00;;;4.44;59.77
23016;BME280;11674;52.428;13.584;2023-04-04T22:32:30;102276.38;;;4.38;59.71
23016;BME280;11674;52.428;13.584;2023-04-04T22:37:37;102268.16;;;4.32;59.55
23016;BME280;11674;52.428;13.584;2023-04-04T22:42:45;102273.19;;;4.28;59.49
23016;BME280;11674;52.428;13.584;2023-04-04T22:47:51;102265.19;;;4.27;59.77
23016;BME280;11674;52.428;13.584;2023-04-04T22:52:58;102260.09;;;4.24;59.61
23016;BME280;11674;52.428;13.584;2023-04-04T22:58:06;102257.56;;;4.22;59.77
23016;BME280;11674;52.428;13.584;2023-04-04T23:03:12;102248.72;;;4.20;59.87
23016;BME280;11674;52.428;13.584;2023-04-04T23:08:19;102258.22;;;4.18;60.01
23016;BME280;11674;52.428;13.584;2023-04-04T23:13:26;102257.81;;;4.14;60.07
23016;BME280;11674;52.428;13.584;2023-04-04T23:18:33;102255.47;;;4.11;60.03
23016;BME280;11674;52.428;13.584;2023-04-04T23:23:40;102257.38;;;3.98;60.27
23016;BME280;11674;52.428;13.584;2023-04-04T23:28:49;102250.59;;;3.81;60.35
23016;BME280;11674;52.428;13.584;2023-04-04T23:33:55;102237.91;;;3.67;60.51
23016;BME280;11674;52.428;13.584;2023-04-04T23:39:02;102239.59;;;3.55;60.43
23016;BME280;11674;52.428;13.584;2023-04-04T23:44:09;102242.75;;;3.45;60.66
23016;BME280;11674;52.428;13.584;2023-04-04T23:49:16;102236.59;;;3.37;60.64
23016;BME280;11674;52.428;13.584;2023-04-04T23:54:23;102230.25;;;3.30;60.65
23016;BME280;11674;52.428;13.584;2023-04-04T23:59:30;102222.84;;;3.24;60.72
